createdAt,value
2018-04-16T03:27:09.128Z,11.80
2018-04-16T03:29:43.000Z,11.80
2018-04-16T03:35:18.832Z,11.90
2018-04-16T03:37:51.972Z,11.80
2018-04-16T03:40:25.236Z,11.90
2018-04-16T03:42:58.598Z,11.90
2018-04-16T03:45:32.619Z,11.90
2018-04-16T03:48:05.764Z,11.90
2018-04-16T03:50:39.033Z,11.90
2018-04-16T03:53:12.167Z,11.90
2018-04-16T03:55:45.212Z,11.90
2018-04-16T03:58:12.692Z,11.90
2018-04-16T04:00:40.194Z,11.90
2018-04-16T04:03:08.448Z,11.90
2018-04-16T04:05:36.721Z,11.90
2018-04-16T04:08:04.195Z,11.90
2018-04-16T04:10:32.444Z,11.90
2018-04-16T04:12:59.914Z,11.90
2018-04-16T04:15:28.163Z,11.90
2018-04-16T04:17:55.623Z,11.90
2018-04-16T04:20:23.100Z,11.90
2018-04-16T04:23:02.403Z,11.90
2018-04-16T04:25:41.850Z,11.90
2018-04-16T04:28:21.329Z,11.90
2018-04-16T04:30:49.587Z,11.80
2018-04-16T04:33:17.031Z,11.80
2018-04-16T04:35:45.307Z,11.80
2018-04-16T04:38:12.763Z,11.80
2018-04-16T04:40:40.257Z,11.80
2018-04-16T04:43:08.473Z,11.70
2018-04-16T04:45:35.929Z,11.70
2018-04-16T04:48:03.416Z,11.70
2018-04-16T04:50:30.866Z,11.60
2018-04-16T04:52:58.396Z,11.50
2018-04-16T04:55:26.576Z,11.50
2018-04-16T04:57:54.180Z,11.50
2018-04-16T05:00:21.636Z,11.40
2018-04-16T05:02:49.113Z,11.30
2018-04-16T05:05:17.336Z,11.30
2018-04-16T05:07:44.829Z,11.30
2018-04-16T05:10:12.288Z,11.20
2018-04-16T05:12:40.512Z,11.10
2018-04-16T05:15:07.999Z,11.10
2018-04-16T05:17:35.566Z,11.00
2018-04-16T05:20:03.128Z,11.00
2018-04-16T05:22:30.591Z,11.00
2018-04-16T05:24:58.068Z,11.00
2018-04-16T05:27:26.315Z,11.10
2018-04-16T05:29:53.770Z,11.10
2018-04-16T05:32:21.265Z,11.10
2018-04-16T05:34:49.520Z,11.10
2018-04-16T05:37:17.019Z,11.10
2018-04-16T05:39:44.472Z,11.20
2018-04-16T05:42:11.974Z,11.20
2018-04-16T05:44:39.428Z,11.20
2018-04-16T05:47:06.938Z,11.20
2018-04-16T05:49:35.145Z,11.20
2018-04-16T05:52:02.608Z,11.20
2018-04-16T05:54:30.104Z,11.30
2018-04-16T05:56:57.587Z,11.20
2018-04-16T05:59:25.044Z,11.30
2018-04-16T06:01:52.547Z,11.30
2018-04-16T06:04:20.000Z,11.30
2018-04-16T06:06:47.503Z,11.30
2018-04-16T06:09:15.721Z,11.30
2018-04-16T06:11:43.176Z,11.30
2018-04-16T06:14:10.658Z,11.30
2018-04-16T06:16:38.128Z,11.40
2018-04-16T06:19:06.379Z,11.40
2018-04-16T06:21:33.848Z,11.40
2018-04-16T06:24:01.350Z,11.40
2018-04-16T06:26:29.577Z,11.40
2018-04-16T06:28:57.085Z,11.40
2018-04-16T06:31:25.311Z,11.50
2018-04-16T06:33:52.791Z,11.40
2018-04-16T06:36:20.251Z,11.50
2018-04-16T06:38:48.880Z,11.50
2018-04-16T06:41:16.348Z,11.50
2018-04-16T06:43:43.823Z,11.50
2018-04-16T06:46:11.300Z,11.40
2018-04-16T06:48:40.256Z,11.40
2018-04-16T06:51:07.758Z,11.40
2018-04-16T06:53:35.220Z,11.40
2018-04-16T06:56:02.704Z,11.40
2018-04-16T06:58:30.166Z,11.40
2018-04-16T07:00:58.414Z,11.40
2018-04-16T07:03:25.889Z,11.50
2018-04-16T07:05:54.158Z,11.50
2018-04-16T08:02:56.110Z,12.90
2018-04-16T08:05:23.589Z,12.90
2018-04-16T08:07:51.119Z,12.80
2018-04-16T08:10:18.620Z,12.90
2018-04-16T08:12:46.088Z,13.00
2018-04-16T08:15:13.580Z,13.10
2018-04-16T08:17:41.819Z,13.00
2018-04-16T08:20:09.312Z,13.00
2018-04-16T08:22:37.527Z,13.30
2018-04-16T08:25:05.008Z,13.30
2018-04-16T08:27:32.477Z,13.40
2018-04-16T08:29:59.961Z,13.50
2018-04-16T08:39:53.994Z,13.40
2018-04-16T08:42:22.241Z,13.50
2018-04-16T08:44:49.695Z,13.50
2018-04-16T08:47:17.182Z,13.50
2018-04-16T08:49:45.436Z,13.70
2018-04-16T08:52:12.919Z,13.70
2018-04-16T08:54:41.230Z,13.70
2018-04-16T08:57:08.702Z,13.70
2018-04-16T08:59:36.165Z,13.90
2018-04-16T09:02:03.691Z,14.10
2018-04-16T09:04:31.145Z,14.30
2018-04-16T09:06:59.367Z,14.70
2018-04-16T09:09:27.982Z,14.80
2018-04-16T09:11:56.204Z,15.00
2018-04-16T09:14:23.727Z,15.00
2018-04-16T09:16:51.940Z,15.20
2018-04-16T09:19:19.406Z,15.20
2018-04-16T09:21:48.011Z,15.60
2018-04-16T09:24:16.278Z,15.80
2018-04-16T09:26:43.744Z,15.80
2018-04-16T09:29:11.228Z,15.90
2018-04-16T09:31:39.479Z,16.10
2018-04-16T09:34:06.940Z,16.10
2018-04-16T09:36:34.503Z,16.30
2018-04-16T09:39:01.991Z,16.40
2018-04-16T09:41:30.575Z,16.20
2018-04-16T09:43:58.818Z,16.30
2018-04-16T09:46:26.272Z,16.30
2018-04-16T09:48:53.776Z,16.20
2018-04-16T09:51:21.224Z,16.30
2018-04-16T09:53:48.760Z,16.40
2018-04-16T09:56:17.371Z,16.30
2018-04-16T09:58:44.847Z,16.30
2018-04-16T10:01:17.943Z,16.30
2018-04-16T10:03:45.506Z,16.40
2018-04-16T10:06:12.971Z,16.20
2018-04-16T10:08:40.425Z,16.10
2018-04-16T10:11:07.902Z,16.30
2018-04-16T10:13:35.368Z,16.30
2018-04-16T10:16:02.836Z,16.10
2018-04-16T10:18:30.296Z,16.10
2018-04-16T10:20:57.766Z,15.90
2018-04-16T10:23:26.009Z,15.80
2018-04-16T10:25:53.521Z,15.80
2018-04-16T10:28:21.043Z,15.80
2018-04-16T10:30:49.263Z,15.70
2018-04-16T10:33:16.735Z,15.70
2018-04-16T10:35:44.234Z,15.80
2018-04-16T10:38:11.685Z,16.00
2018-04-16T10:40:39.176Z,16.10
2018-04-16T10:43:07.445Z,16.50
2018-04-16T10:45:36.046Z,16.70
2018-04-16T10:48:03.509Z,16.70
2018-04-16T10:50:31.013Z,16.90
2018-04-16T10:52:58.472Z,16.80
2018-04-16T10:55:25.961Z,16.80
2018-04-16T10:57:54.210Z,16.60
2018-04-16T11:00:21.753Z,16.60
2018-04-16T11:02:49.247Z,16.50
2018-04-16T11:05:16.696Z,16.40
2018-04-16T11:07:44.185Z,16.40
2018-04-16T11:10:11.641Z,16.30
2018-04-16T11:37:34.919Z,17.30
2018-04-16T11:40:02.404Z,17.30
2018-04-16T11:42:29.945Z,17.50
2018-04-16T11:44:57.404Z,17.70
2018-04-16T11:47:24.875Z,17.90
2018-04-16T11:49:52.360Z,17.80
2018-04-16T11:52:19.851Z,17.90
2018-04-16T11:54:47.336Z,18.00
2018-04-16T11:57:14.798Z,17.70
2018-04-16T11:59:42.275Z,17.90
2018-04-16T12:02:10.539Z,18.00
2018-04-16T12:04:37.995Z,18.00
2018-04-16T12:07:06.596Z,18.20
2018-04-16T12:09:34.849Z,18.40
2018-04-16T12:12:02.299Z,18.40
2018-04-16T12:14:29.787Z,18.60
2018-04-16T12:16:58.124Z,18.60
2018-04-16T12:19:25.687Z,18.60
2018-04-16T12:21:53.087Z,18.70
2018-04-16T12:44:11.285Z,18.70
2018-04-16T12:46:38.768Z,18.80
2018-04-16T12:49:06.257Z,18.30
2018-04-16T12:51:33.724Z,18.10
2018-04-16T12:54:02.078Z,17.80
2018-04-16T12:56:29.576Z,17.80
2018-04-16T12:58:57.795Z,17.90
2018-04-16T13:01:25.336Z,17.90
2018-04-16T13:03:52.819Z,17.90
2018-04-16T13:06:20.276Z,18.00
2018-04-16T13:08:47.741Z,18.00
2018-04-16T13:11:15.213Z,18.10
2018-04-16T13:13:42.695Z,18.00
2018-04-16T13:16:10.160Z,17.80
2018-04-16T13:18:37.647Z,17.70
2018-04-16T13:21:05.120Z,17.70
2018-04-16T13:23:32.611Z,17.90
2018-04-16T13:26:00.092Z,17.70
2018-04-16T13:28:27.580Z,17.60
2018-04-16T13:30:55.096Z,17.30
2018-04-16T13:33:23.315Z,17.30
2018-04-16T13:35:50.796Z,17.30
2018-04-16T13:38:18.240Z,17.30
2018-04-16T13:40:45.741Z,17.30
2018-04-16T13:43:13.973Z,17.10
2018-04-16T13:45:41.460Z,17.10
2018-04-16T13:48:08.947Z,17.10
2018-04-16T13:50:37.266Z,17.10
2018-04-16T13:53:04.729Z,17.10
2018-04-16T13:55:32.204Z,17.00
2018-04-16T13:58:00.987Z,17.20
2018-04-16T14:00:28.535Z,17.10
2018-04-16T14:02:56.023Z,17.10
2018-04-16T14:05:23.530Z,17.10
2018-04-16T14:07:51.032Z,17.10
2018-04-16T14:10:19.299Z,17.30
2018-04-16T14:12:46.777Z,17.30
2018-04-16T14:15:14.996Z,17.40
2018-04-16T14:17:42.493Z,17.30
2018-04-16T14:20:09.964Z,17.50
2018-04-16T14:22:37.447Z,17.60
2018-04-16T14:25:05.721Z,17.70
2018-04-16T14:27:33.961Z,17.60
2018-04-16T14:30:01.449Z,17.60
2018-04-16T14:32:29.705Z,17.40
2018-04-16T14:34:57.214Z,17.40
2018-04-16T14:37:25.276Z,17.40
2018-04-16T14:39:52.757Z,17.10
2018-04-16T14:42:20.221Z,17.00
2018-04-16T14:44:47.700Z,16.90
2018-04-16T14:47:15.155Z,16.80
2018-04-16T14:49:42.652Z,16.70
2018-04-16T14:52:10.931Z,16.50
2018-04-16T14:54:39.196Z,16.40
2018-04-16T14:57:07.420Z,16.30
2018-04-16T14:59:34.895Z,16.30
2018-04-16T15:02:02.361Z,16.20
2018-04-16T15:04:29.864Z,16.20
2018-04-16T15:06:57.432Z,16.00
2018-04-16T15:09:24.902Z,16.10
2018-04-16T15:11:52.446Z,16.00
2018-04-16T15:14:19.904Z,15.90
2018-04-16T15:16:47.385Z,15.80
2018-04-16T16:11:23.783Z,15.50
2018-04-16T16:13:51.281Z,15.40
2018-04-16T16:16:18.754Z,15.40
2018-04-16T16:38:38.540Z,15.20
2018-04-16T17:23:19.993Z,14.80
2018-04-16T17:25:47.512Z,14.80
2018-04-16T17:28:15.740Z,14.70
2018-04-16T17:30:43.251Z,14.70
2018-04-16T17:33:11.516Z,14.60
2018-04-16T17:35:39.775Z,14.60
2018-04-16T17:38:07.241Z,14.60
2018-04-16T17:40:34.739Z,14.60
2018-04-16T17:43:02.197Z,14.50
2018-04-16T17:45:29.708Z,14.50
2018-04-16T17:47:57.197Z,14.50
2018-04-16T17:50:24.719Z,14.50
2018-04-16T17:52:53.017Z,14.40
2018-04-16T17:55:21.323Z,14.40
2018-04-16T17:57:48.825Z,14.30
2018-04-16T18:00:16.323Z,14.30
2018-04-16T18:02:44.598Z,14.20
2018-04-16T18:05:12.086Z,14.10
2018-04-16T18:07:39.590Z,14.10
2018-04-16T18:10:07.048Z,14.00
2018-04-16T18:12:34.573Z,14.00
2018-04-16T18:15:02.077Z,13.90
2018-04-16T18:17:30.371Z,13.80
2018-04-16T18:19:58.597Z,13.70
2018-04-16T18:22:26.135Z,13.70
2018-04-16T18:24:53.601Z,13.60
2018-04-16T18:27:21.116Z,13.60
2018-04-16T18:49:40.304Z,13.20
2018-04-16T18:52:08.587Z,13.10
2018-04-16T18:54:36.851Z,13.00
2018-04-16T18:57:04.384Z,13.00
2018-04-16T18:59:31.889Z,12.90
2018-04-16T19:02:00.172Z,12.90
2018-04-16T19:04:27.666Z,12.90
2018-04-16T19:06:55.235Z,12.90
2018-04-16T19:09:22.722Z,12.80
2018-04-16T19:11:50.260Z,12.80
2018-04-16T19:14:17.730Z,12.70
2018-04-16T19:16:45.240Z,12.70
2018-04-16T19:19:13.913Z,12.60
2018-04-16T19:21:47.705Z,12.50
2018-04-16T19:24:15.962Z,12.40
2018-04-16T19:26:49.221Z,12.40
2018-04-16T19:29:16.702Z,12.40
2018-04-16T19:31:44.197Z,12.40
2018-04-16T19:34:17.341Z,12.40
2018-04-16T19:36:44.855Z,12.40
2018-04-16T19:39:12.355Z,12.40
2018-04-16T19:41:45.460Z,12.30
2018-04-16T19:44:12.940Z,12.30
2018-04-16T19:46:41.212Z,12.10
2018-04-16T19:49:15.265Z,12.00
2018-04-16T19:51:42.757Z,12.00
2018-04-16T19:54:10.280Z,11.90
2018-04-16T19:59:41.716Z,11.70
2018-04-16T20:02:15.826Z,11.60
2018-04-16T20:04:44.095Z,11.60
2018-04-16T20:07:11.582Z,11.60
2018-04-16T20:09:39.087Z,11.60
2018-04-16T20:12:06.560Z,11.50
2018-04-16T20:14:34.095Z,11.50
2018-04-16T20:17:01.577Z,11.40
2018-04-16T20:19:29.055Z,11.30
2018-04-16T20:21:57.304Z,11.20
2018-04-16T20:24:24.821Z,11.20
2018-04-16T20:26:52.298Z,11.20
2018-04-16T20:29:19.816Z,11.10
2018-04-16T20:31:47.305Z,11.10
2018-04-16T20:34:14.776Z,11.00
2018-04-16T20:36:42.268Z,11.00
2018-04-16T20:39:10.624Z,10.90
2018-04-16T20:41:38.096Z,10.90
2018-04-16T20:44:05.584Z,10.90
2018-04-16T20:46:33.044Z,10.90
2018-04-16T20:49:00.559Z,10.90
2018-04-16T20:51:28.050Z,10.90
2018-04-16T20:53:56.301Z,10.80
2018-04-16T20:56:23.776Z,10.80
2018-04-16T20:58:51.280Z,10.70
2018-04-16T21:01:18.781Z,10.70
2018-04-16T21:03:46.293Z,10.70
2018-04-16T21:06:14.500Z,10.60
2018-04-16T21:08:41.993Z,10.60
2018-04-16T21:11:10.267Z,10.60
2018-04-16T21:13:38.526Z,10.60
2018-04-16T21:16:06.010Z,10.60
2018-04-16T21:18:34.311Z,10.70
2018-04-16T21:21:01.800Z,10.70
2018-04-16T21:23:29.343Z,10.70
2018-04-16T21:25:56.810Z,10.70
2018-04-16T21:28:24.263Z,10.70
2018-04-16T21:30:51.960Z,10.70
2018-04-16T21:33:20.205Z,10.60
2018-04-16T21:35:47.705Z,10.60
2018-04-16T21:38:15.956Z,10.60
2018-04-16T21:40:43.424Z,10.60
2018-04-16T21:43:10.903Z,10.60
2018-04-16T21:45:39.180Z,10.50
2018-04-16T21:48:07.414Z,10.50
2018-04-16T21:50:34.910Z,10.50
2018-04-16T21:53:03.137Z,10.50
2018-04-16T21:55:30.620Z,10.50
2018-04-16T21:57:58.092Z,10.50
2018-04-16T22:00:26.353Z,10.50
2018-04-16T22:02:53.823Z,10.50
2018-04-16T22:05:21.359Z,10.50
2018-04-16T22:07:48.829Z,10.50
2018-04-16T22:10:16.311Z,10.50
2018-04-16T22:12:44.535Z,10.50
2018-04-16T22:15:12.024Z,10.50
2018-04-16T22:17:39.505Z,10.50
2018-04-16T22:20:07.766Z,10.60
2018-04-16T22:22:35.249Z,10.50
2018-04-16T22:25:02.709Z,10.60
2018-04-16T22:27:30.183Z,10.60
2018-04-16T22:29:57.663Z,10.60
2018-04-16T22:32:25.111Z,10.60
2018-04-16T22:34:52.627Z,10.60
2018-04-16T22:37:20.106Z,10.50
2018-04-16T22:39:47.588Z,10.50
2018-04-16T22:42:15.055Z,10.50
2018-04-16T22:44:42.543Z,10.50
2018-04-16T22:47:10.777Z,10.50
2018-04-16T22:49:38.247Z,10.50
2018-04-16T22:52:05.713Z,10.50
2018-04-16T22:54:33.189Z,10.40
2018-04-16T22:57:01.412Z,10.30
2018-04-16T22:59:28.910Z,10.40
2018-04-16T23:01:56.463Z,10.30
2018-04-16T23:04:23.937Z,10.30
2018-04-16T23:06:51.395Z,10.20
2018-04-16T23:09:19.640Z,10.20
2018-04-16T23:11:47.117Z,10.20
2018-04-16T23:14:14.684Z,10.20
2018-04-16T23:16:42.152Z,10.20
2018-04-16T23:19:09.640Z,10.10
2018-04-16T23:21:37.132Z,10.10
2018-04-16T23:24:04.618Z,10.00
2018-04-16T23:26:32.113Z,10.00
2018-04-16T23:28:59.583Z,10.00
2018-04-16T23:31:27.081Z,9.90
2018-04-16T23:33:55.304Z,9.90
2018-04-16T23:36:22.781Z,9.90
2018-04-16T23:38:50.239Z,9.90
2018-04-16T23:41:17.709Z,9.90
2018-04-16T23:43:45.161Z,9.90
2018-04-16T23:46:12.672Z,10.00
2018-04-16T23:48:40.881Z,9.90
2018-04-16T23:51:08.375Z,9.90
2018-04-16T23:53:35.838Z,10.00
2018-04-16T23:56:03.307Z,9.90
2018-04-16T23:58:31.571Z,9.90
